createdAt,value
2022-10-01T00:01:11.320Z,8.16
2022-10-01T00:03:39.034Z,8.24
2022-10-01T00:06:09.453Z,8.27
2022-10-01T00:08:38.230Z,8.15
2022-10-01T00:11:10.089Z,8.23
2022-10-01T00:13:38.169Z,8.19
2022-10-01T00:16:09.340Z,8.19
2022-10-01T00:18:38.182Z,8.18
2022-10-01T00:21:09.669Z,8.20
2022-10-01T00:23:37.279Z,8.18
2022-10-01T00:26:12.648Z,8.17
2022-10-01T00:28:40.320Z,8.18
2022-10-01T00:31:10.390Z,8.20
2022-10-01T00:33:38.669Z,8.18
2022-10-01T00:36:06.855Z,8.17
2022-10-01T00:38:35.184Z,8.10
2022-10-01T00:41:03.520Z,8.17
2022-10-01T00:43:32.660Z,8.29
2022-10-01T00:46:03.300Z,8.25
2022-10-01T00:48:36.906Z,8.26
2022-10-01T00:51:06.497Z,8.24
2022-10-01T00:53:34.395Z,8.26
2022-10-01T00:56:02.322Z,8.25
2022-10-01T00:58:29.896Z,8.30
2022-10-01T01:00:58.148Z,8.27
2022-10-01T01:03:25.841Z,8.23
2022-10-01T01:05:54.706Z,8.21
2022-10-01T01:08:22.320Z,8.20
2022-10-01T01:10:55.712Z,8.27
2022-10-01T01:13:27.040Z,8.30
2022-10-01T01:15:57.479Z,8.23
2022-10-01T01:18:30.084Z,8.25
2022-10-01T01:21:13.845Z,8.20
2022-10-01T01:24:32.289Z,8.30
2022-10-01T01:27:08.935Z,8.18
2022-10-01T01:29:41.456Z,8.23
2022-10-01T01:32:14.775Z,8.20
2022-10-01T01:34:45.115Z,8.27
2022-10-01T01:37:15.166Z,8.33
2022-10-01T01:39:46.131Z,8.44
2022-10-01T01:42:20.077Z,8.56
2022-10-01T01:44:50.998Z,8.62
2022-10-01T01:47:20.194Z,8.68
2022-10-01T01:49:50.143Z,8.73
2022-10-01T01:52:18.380Z,8.78
2022-10-01T01:54:47.804Z,8.84
2022-10-01T01:57:17.477Z,8.88
2022-10-01T01:59:45.361Z,8.90
2022-10-01T02:02:16.806Z,8.94
2022-10-01T02:04:47.290Z,9.06
2022-10-01T02:07:43.235Z,9.01
2022-10-01T02:10:18.411Z,9.08
2022-10-01T02:12:56.926Z,9.12
2022-10-01T02:15:28.719Z,9.19
2022-10-01T02:18:03.323Z,9.23
2022-10-01T02:20:33.817Z,9.33
2022-10-01T02:23:04.701Z,9.34
2022-10-01T02:25:35.564Z,9.36
2022-10-01T02:28:06.896Z,9.35
2022-10-01T02:30:36.445Z,9.49
2022-10-01T02:33:06.905Z,9.45
2022-10-01T02:35:36.116Z,9.54
2022-10-01T02:38:05.790Z,9.62
2022-10-01T02:40:36.385Z,9.56
2022-10-01T02:43:08.182Z,9.53
2022-10-01T02:45:38.163Z,9.55
2022-10-01T02:48:08.759Z,9.53
2022-10-01T02:50:43.325Z,9.53
2022-10-01T02:53:14.127Z,9.60
2022-10-01T02:55:42.720Z,9.66
2022-10-01T02:58:09.414Z,9.68
2022-10-01T03:00:36.944Z,9.61
2022-10-01T03:03:04.607Z,9.56
2022-10-01T03:05:33.508Z,9.53
2022-10-01T03:08:01.389Z,9.63
2022-10-01T03:10:29.298Z,9.60
2022-10-01T03:12:56.823Z,9.62
2022-10-01T03:15:24.485Z,9.60
2022-10-01T03:17:52.514Z,9.58
2022-10-01T03:20:20.286Z,9.56
2022-10-01T03:22:49.323Z,9.58
2022-10-01T03:25:17.441Z,9.73
2022-10-01T03:27:46.385Z,9.55
2022-10-01T03:30:14.828Z,9.61
2022-10-01T03:32:42.362Z,9.56
2022-10-01T03:35:10.533Z,9.51
2022-10-01T03:37:38.091Z,9.42
2022-10-01T03:40:08.273Z,9.45
2022-10-01T03:42:35.950Z,9.29
2022-10-01T03:45:03.564Z,9.38
2022-10-01T03:47:31.081Z,9.37
2022-10-01T03:49:58.612Z,9.34
2022-10-01T03:52:26.348Z,9.23
2022-10-01T03:54:53.872Z,9.25
2022-10-01T03:57:22.773Z,9.21
2022-10-01T03:59:50.365Z,9.32
2022-10-01T04:02:17.993Z,9.28
2022-10-01T04:04:45.613Z,9.28
2022-10-01T04:07:13.135Z,9.25
2022-10-01T04:09:40.643Z,9.18
2022-10-01T04:12:08.292Z,9.07
2022-10-01T04:14:37.207Z,9.19
2022-10-01T04:17:04.771Z,9.19
2022-10-01T04:19:32.599Z,9.21
2022-10-01T04:22:00.399Z,9.25
2022-10-01T04:24:27.926Z,9.26
2022-10-01T04:26:55.568Z,9.19
2022-10-01T04:29:23.151Z,9.12
2022-10-01T04:31:53.694Z,9.07
2022-10-01T04:34:41.345Z,9.04
2022-10-01T04:37:08.829Z,9.13
2022-10-01T04:39:36.440Z,9.20
2022-10-01T04:42:04.047Z,9.13
2022-10-01T04:44:31.573Z,9.10
2022-10-01T04:47:00.574Z,9.11
2022-10-01T04:49:28.213Z,9.13
2022-10-01T04:51:55.849Z,9.13
2022-10-01T04:54:23.377Z,9.17
2022-10-01T04:56:51.009Z,9.06
2022-10-01T04:59:18.785Z,9.09
2022-10-01T05:01:46.347Z,9.01
2022-10-01T05:04:15.268Z,9.05
2022-10-01T05:06:42.779Z,9.08
2022-10-01T05:09:10.319Z,9.02
2022-10-01T05:11:39.073Z,9.06
2022-10-01T05:14:06.602Z,9.12
2022-10-01T05:16:34.206Z,9.03
2022-10-01T05:19:01.735Z,9.02
2022-10-01T05:21:31.124Z,9.12
2022-10-01T05:23:58.786Z,9.09
2022-10-01T05:26:26.473Z,9.14
2022-10-01T05:28:54.017Z,9.23
2022-10-01T05:31:21.535Z,9.36
2022-10-01T05:33:49.090Z,9.27
2022-10-01T05:36:16.637Z,9.35
2022-10-01T05:38:46.034Z,9.45
2022-10-01T05:41:13.554Z,9.41
2022-10-01T05:43:41.111Z,9.45
2022-10-01T05:46:10.254Z,9.40
2022-10-01T05:48:38.494Z,9.37
2022-10-01T05:51:08.057Z,9.46
2022-10-01T05:53:37.292Z,9.47
2022-10-01T05:56:06.694Z,9.43
2022-10-01T05:58:34.359Z,9.44
2022-10-01T06:01:02.786Z,9.36
2022-10-01T06:03:30.320Z,9.39
2022-10-01T06:05:57.928Z,9.42
2022-10-01T06:08:28.308Z,9.41
2022-10-01T06:11:00.286Z,9.41
2022-10-01T06:13:29.380Z,9.41
2022-10-01T06:15:57.258Z,9.48
2022-10-01T06:18:24.870Z,9.49
2022-10-01T06:20:52.434Z,9.43
2022-10-01T06:23:19.983Z,9.43
2022-10-01T06:25:47.518Z,9.37
2022-10-01T06:28:15.560Z,9.47
2022-10-01T06:30:44.912Z,9.40
2022-10-01T06:33:14.358Z,9.49
2022-10-01T06:35:43.706Z,9.42
2022-10-01T06:38:11.834Z,9.45
2022-10-01T06:40:39.604Z,9.45
2022-10-01T06:43:08.064Z,9.49
2022-10-01T06:45:38.215Z,9.53
2022-10-01T06:48:07.704Z,9.60
2022-10-01T06:50:35.874Z,9.53
2022-10-01T06:53:02.692Z,9.57
2022-10-01T06:55:31.619Z,9.53
2022-10-01T06:58:00.401Z,9.60
2022-10-01T07:00:29.225Z,9.60
2022-10-01T07:02:56.862Z,9.50
2022-10-01T07:05:26.456Z,9.60
2022-10-01T07:07:54.413Z,9.56
2022-10-01T07:10:23.240Z,9.60
2022-10-01T07:12:51.270Z,9.67
2022-10-01T07:15:20.461Z,9.69
2022-10-01T07:17:49.795Z,9.85
2022-10-01T07:20:18.573Z,9.72
2022-10-01T07:22:48.369Z,9.71
2022-10-01T07:25:16.288Z,9.68
2022-10-01T07:27:43.891Z,9.69
2022-10-01T07:30:12.270Z,9.71
2022-10-01T07:32:39.837Z,9.70
2022-10-01T07:35:08.976Z,9.70
2022-10-01T07:37:36.483Z,9.77
2022-10-01T07:40:07.638Z,9.79
2022-10-01T07:42:35.440Z,9.93
2022-10-01T07:45:04.247Z,9.71
2022-10-01T07:47:32.048Z,9.74
2022-10-01T07:49:59.582Z,9.75
2022-10-01T07:52:27.073Z,9.73
2022-10-01T07:54:54.618Z,9.80
2022-10-01T07:57:23.549Z,9.85
2022-10-01T07:59:55.566Z,9.80
2022-10-01T08:02:23.657Z,9.81
2022-10-01T08:05:08.992Z,9.80
2022-10-01T08:07:36.778Z,9.84
2022-10-01T08:10:05.479Z,9.90
2022-10-01T08:12:34.411Z,9.88
2022-10-01T08:15:03.071Z,9.89
2022-10-01T08:17:30.680Z,9.93
2022-10-01T08:19:58.198Z,9.94
2022-10-01T08:22:25.712Z,9.90
2022-10-01T08:24:53.231Z,9.93
2022-10-01T08:27:20.784Z,9.99
2022-10-01T08:29:49.673Z,9.94
2022-10-01T08:32:17.355Z,10.02
2022-10-01T08:34:44.925Z,10.00
2022-10-01T08:37:12.864Z,10.05
2022-10-01T08:39:40.581Z,10.14
2022-10-01T08:42:15.311Z,10.22
2022-10-01T08:44:45.382Z,10.18
2022-10-01T08:47:18.208Z,10.09
2022-10-01T08:49:48.256Z,10.14
2022-10-01T08:52:21.233Z,10.19
2022-10-01T08:54:51.756Z,10.19
2022-10-01T08:57:22.224Z,10.25
2022-10-01T08:59:52.288Z,10.25
2022-10-01T09:02:23.376Z,10.24
2022-10-01T09:04:55.887Z,10.25
2022-10-01T09:07:42.895Z,10.31
2022-10-01T09:10:25.497Z,10.40
2022-10-01T09:13:07.966Z,10.41
2022-10-01T09:15:39.586Z,10.41
2022-10-01T09:18:16.748Z,10.44
2022-10-01T09:20:47.367Z,10.41
2022-10-01T09:23:20.986Z,10.55
2022-10-01T09:25:51.202Z,10.56
2022-10-01T09:28:21.677Z,10.51
2022-10-01T09:30:54.854Z,10.62
2022-10-01T09:33:27.735Z,10.70
2022-10-01T09:36:01.374Z,10.71
2022-10-01T09:38:34.275Z,10.71
2022-10-01T09:41:01.836Z,10.73
2022-10-01T09:43:30.467Z,10.81
2022-10-01T09:45:58.380Z,10.92
2022-10-01T09:48:34.118Z,10.92
2022-10-01T09:51:07.652Z,10.94
2022-10-01T09:53:38.339Z,11.02
2022-10-01T09:56:14.946Z,11.05
2022-10-01T09:58:48.011Z,11.02
2022-10-01T10:01:22.256Z,11.24
2022-10-01T10:03:58.971Z,11.32
2022-10-01T10:06:28.802Z,11.30
2022-10-01T10:08:58.189Z,11.38
2022-10-01T10:11:28.050Z,11.39
2022-10-01T10:13:57.282Z,11.53
2022-10-01T10:16:27.683Z,11.55
2022-10-01T10:18:58.641Z,11.55
2022-10-01T10:21:28.587Z,11.61
2022-10-01T10:23:57.683Z,11.57
2022-10-01T10:26:31.867Z,11.58
2022-10-01T10:29:00.642Z,11.58
2022-10-01T10:31:29.838Z,11.70
2022-10-01T10:34:02.465Z,11.63
2022-10-01T10:36:31.143Z,11.52
2022-10-01T10:38:59.147Z,11.52
2022-10-01T10:41:27.207Z,11.57
2022-10-01T10:43:57.638Z,11.49
2022-10-01T10:46:31.319Z,11.48
2022-10-01T10:49:08.635Z,11.59
2022-10-01T10:51:49.227Z,11.56
2022-10-01T10:54:22.943Z,11.68
2022-10-01T10:57:02.514Z,11.63
2022-10-01T10:59:32.656Z,11.76
2022-10-01T11:02:01.829Z,11.78
2022-10-01T11:04:39.109Z,11.85
2022-10-01T11:07:07.052Z,12.01
2022-10-01T11:09:45.503Z,12.04
2022-10-01T11:12:21.086Z,12.10
2022-10-01T11:15:01.381Z,12.04
2022-10-01T11:17:40.581Z,12.06
2022-10-01T11:20:26.054Z,12.04
2022-10-01T11:23:01.801Z,12.24
2022-10-01T11:25:43.774Z,12.26
2022-10-01T11:28:22.588Z,12.24
2022-10-01T11:30:58.869Z,12.36
2022-10-01T11:33:34.544Z,12.28
2022-10-01T11:36:06.742Z,12.34
2022-10-01T11:38:53.515Z,12.31
2022-10-01T11:41:28.614Z,12.39
2022-10-01T11:43:58.651Z,12.36
2022-10-01T11:46:33.933Z,12.48
2022-10-01T11:49:05.255Z,12.25
2022-10-01T11:51:39.602Z,12.39
2022-10-01T11:54:10.704Z,12.29
2022-10-01T11:56:59.268Z,12.30
2022-10-01T11:59:31.141Z,12.44
2022-10-01T12:02:08.105Z,12.60
2022-10-01T12:04:38.551Z,12.93
2022-10-01T12:07:14.830Z,12.94
2022-10-01T12:09:54.175Z,13.04
2022-10-01T12:12:24.258Z,13.13
2022-10-01T12:14:55.321Z,13.23
2022-10-01T12:17:27.602Z,13.43
2022-10-01T12:19:56.457Z,13.49
2022-10-01T12:22:28.350Z,13.58
2022-10-01T12:24:55.967Z,13.66
2022-10-01T12:27:39.819Z,13.69
2022-10-01T12:30:09.936Z,13.74
2022-10-01T12:32:51.119Z,13.66
2022-10-01T12:35:35.641Z,13.63
2022-10-01T12:38:13.956Z,13.57
2022-10-01T12:40:46.591Z,13.79
2022-10-01T12:43:29.159Z,13.75
2022-10-01T12:46:02.451Z,13.86
2022-10-01T12:48:36.099Z,13.79
2022-10-01T12:51:17.240Z,13.80
2022-10-01T12:53:47.659Z,13.93
2022-10-01T12:56:18.014Z,13.86
2022-10-01T12:58:53.735Z,14.17
2022-10-01T13:01:31.602Z,14.40
2022-10-01T13:04:08.788Z,14.51
2022-10-01T13:06:43.661Z,14.71
2022-10-01T13:09:17.527Z,14.66
2022-10-01T13:11:54.034Z,14.65
2022-10-01T13:14:22.466Z,14.76
2022-10-01T13:16:58.156Z,14.88
2022-10-01T13:19:29.195Z,15.09
2022-10-01T13:22:07.555Z,15.20
2022-10-01T13:24:39.638Z,15.15
2022-10-01T13:27:11.364Z,15.19
2022-10-01T13:29:48.115Z,15.08
2022-10-01T13:32:35.754Z,15.12
2022-10-01T13:35:24.085Z,15.14
2022-10-01T13:37:51.820Z,15.09
2022-10-01T13:40:26.731Z,15.19
2022-10-01T13:42:55.780Z,15.08
2022-10-01T13:45:31.834Z,15.21
2022-10-01T13:48:15.735Z,15.39
2022-10-01T13:50:55.586Z,15.50
2022-10-01T13:53:25.240Z,15.47
2022-10-01T13:55:54.714Z,15.42
2022-10-01T13:58:25.506Z,15.44
2022-10-01T14:00:55.343Z,15.54
2022-10-01T14:03:42.679Z,15.55
2022-10-01T14:06:18.408Z,15.52
2022-10-01T14:08:50.249Z,15.47
2022-10-01T14:11:41.460Z,15.61
2022-10-01T14:14:31.780Z,15.73
2022-10-01T14:16:59.899Z,15.68
2022-10-01T14:19:28.512Z,15.68
2022-10-01T14:22:07.212Z,15.79
2022-10-01T14:24:44.437Z,15.63
2022-10-01T14:27:18.334Z,15.65
2022-10-01T14:29:58.202Z,15.52
2022-10-01T14:32:34.732Z,15.51
2022-10-01T14:35:19.206Z,15.44
2022-10-01T14:37:46.879Z,15.40
2022-10-01T14:40:18.604Z,15.29
2022-10-01T14:42:57.769Z,15.04
2022-10-01T14:45:25.567Z,15.04
2022-10-01T14:48:01.314Z,14.99
2022-10-01T14:50:29.559Z,14.78
2022-10-01T14:52:58.402Z,14.76
2022-10-01T14:55:26.653Z,14.69
2022-10-01T14:57:56.675Z,14.66
2022-10-01T15:00:25.813Z,14.49
2022-10-01T15:02:55.067Z,14.44
2022-10-01T15:05:24.988Z,14.35
2022-10-01T15:07:53.036Z,14.34
2022-10-01T15:10:23.910Z,14.31
2022-10-01T15:12:52.760Z,14.13
2022-10-01T15:15:25.016Z,14.13
2022-10-01T15:17:53.034Z,14.06
2022-10-01T15:20:20.769Z,14.11
2022-10-01T15:22:49.925Z,14.04
2022-10-01T15:25:22.138Z,14.12
2022-10-01T15:27:50.030Z,14.04
2022-10-01T15:30:19.143Z,13.95
2022-10-01T15:32:49.371Z,13.88
2022-10-01T15:35:20.201Z,13.78
2022-10-01T15:37:50.394Z,13.86
2022-10-01T15:40:28.255Z,13.86
2022-10-01T15:43:26.535Z,13.83
2022-10-01T15:46:18.175Z,13.85
2022-10-01T15:48:47.747Z,13.84
2022-10-01T15:51:19.463Z,13.97
2022-10-01T15:53:47.291Z,13.94
2022-10-01T15:56:16.515Z,13.74
2022-10-01T15:58:48.491Z,13.70
2022-10-01T16:01:22.195Z,13.84
2022-10-01T16:03:54.731Z,13.92
2022-10-01T16:06:25.111Z,13.98
2022-10-01T16:09:05.040Z,13.89
2022-10-01T16:11:33.263Z,13.80
2022-10-01T16:14:31.413Z,13.83
2022-10-01T16:17:38.361Z,13.81
2022-10-01T16:20:39.281Z,13.83
2022-10-01T16:23:43.225Z,13.72
2022-10-01T16:26:36.032Z,13.76
2022-10-01T16:29:07.253Z,13.67
2022-10-01T16:31:36.141Z,13.64
2022-10-01T16:34:03.795Z,13.67
2022-10-01T16:36:34.189Z,13.73
2022-10-01T16:39:03.404Z,13.60
2022-10-01T16:41:31.543Z,13.60
2022-10-01T16:43:59.120Z,13.62
2022-10-01T16:46:26.845Z,13.54
2022-10-01T16:48:54.424Z,13.56
2022-10-01T16:51:22.584Z,13.50
2022-10-01T16:53:50.247Z,13.46
2022-10-01T16:56:21.457Z,13.34
2022-10-01T16:58:52.783Z,13.39
2022-10-01T17:01:20.388Z,13.36
2022-10-01T17:03:48.005Z,13.29
2022-10-01T17:06:15.597Z,13.21
2022-10-01T17:08:43.405Z,13.30
2022-10-01T17:11:12.903Z,13.20
2022-10-01T17:13:42.213Z,13.21
2022-10-01T17:16:09.843Z,13.17
2022-10-01T17:18:37.463Z,13.04
2022-10-01T17:21:05.659Z,13.11
2022-10-01T17:23:34.847Z,13.08
2022-10-01T17:26:02.945Z,13.01
2022-10-01T17:28:31.227Z,12.98
2022-10-01T17:31:00.141Z,12.98
2022-10-01T17:33:28.255Z,12.96
2022-10-01T17:35:55.811Z,12.96
2022-10-01T17:38:23.905Z,12.92
2022-10-01T17:40:56.361Z,12.92
2022-10-01T17:43:24.322Z,12.89
2022-10-01T17:45:56.606Z,12.90
2022-10-01T17:48:26.037Z,12.90
2022-10-01T17:51:01.450Z,12.91
2022-10-01T17:53:34.952Z,12.95
2022-10-01T17:56:07.027Z,12.96
2022-10-01T17:58:34.606Z,12.96
2022-10-01T18:01:02.258Z,12.99
2022-10-01T18:03:31.602Z,13.00
2022-10-01T18:06:03.401Z,12.90
2022-10-01T18:08:51.150Z,12.97
2022-10-01T18:11:19.612Z,13.06
2022-10-01T18:13:47.164Z,13.06
2022-10-01T18:16:18.998Z,13.03
2022-10-01T18:21:36.402Z,13.01
2022-10-01T18:24:05.116Z,12.95
2022-10-01T18:26:33.213Z,12.88
2022-10-01T18:29:01.425Z,12.96
2022-10-01T18:31:34.274Z,12.88
2022-10-01T18:34:04.904Z,12.82
2022-10-01T18:36:42.984Z,12.82
2022-10-01T18:39:16.845Z,12.69
2022-10-01T18:41:44.528Z,12.83
2022-10-01T18:44:17.989Z,12.76
2022-10-01T18:46:58.623Z,12.66
2022-10-01T18:49:45.806Z,12.68
2022-10-01T18:52:20.574Z,12.60
2022-10-01T18:55:09.977Z,12.54
2022-10-01T18:57:48.090Z,12.54
2022-10-01T19:00:18.125Z,12.55
2022-10-01T19:02:55.161Z,12.53
2022-10-01T19:05:54.960Z,12.50
2022-10-01T19:08:32.417Z,12.47
2022-10-01T19:11:04.363Z,12.41
2022-10-01T19:13:39.587Z,12.44
2022-10-01T19:16:15.383Z,12.46
2022-10-01T19:18:55.052Z,12.40
2022-10-01T19:21:30.101Z,12.42
2022-10-01T19:24:10.848Z,12.35
2022-10-01T19:26:43.629Z,12.38
2022-10-01T19:29:23.512Z,12.35
2022-10-01T19:31:54.507Z,12.37
2022-10-01T19:34:26.676Z,12.29
2022-10-01T19:37:00.839Z,12.19
2022-10-01T19:39:31.385Z,12.22
2022-10-01T19:42:01.862Z,12.17
2022-10-01T19:44:33.693Z,12.20
2022-10-01T19:47:12.114Z,12.17
2022-10-01T19:49:40.270Z,12.18
2022-10-01T19:52:13.247Z,12.09
2022-10-01T19:54:44.418Z,12.11
2022-10-01T19:57:19.745Z,11.99
2022-10-01T19:59:47.829Z,11.98
2022-10-01T20:02:17.248Z,12.16
2022-10-01T20:04:51.628Z,12.06
2022-10-01T20:07:24.025Z,11.99
2022-10-01T20:09:56.009Z,11.91
2022-10-01T20:12:30.872Z,11.85
2022-10-01T20:15:11.260Z,11.92
2022-10-01T20:17:47.764Z,11.86
2022-10-01T20:20:18.548Z,11.83
2022-10-01T20:23:02.334Z,11.88
2022-10-01T20:25:35.156Z,11.85
2022-10-01T20:28:07.624Z,11.87
2022-10-01T20:30:44.774Z,11.95
2022-10-01T20:33:19.998Z,11.91
2022-10-01T20:35:56.065Z,11.96
2022-10-01T20:38:28.921Z,11.94
2022-10-01T20:40:58.506Z,11.98
2022-10-01T20:43:31.181Z,11.96
2022-10-01T20:45:59.922Z,12.02
2022-10-01T20:48:30.880Z,12.03
2022-10-01T20:51:02.651Z,12.04
2022-10-01T20:53:38.681Z,12.02
2022-10-01T20:56:12.176Z,12.03
2022-10-01T20:58:44.546Z,12.03
2022-10-01T21:01:17.082Z,12.08
2022-10-01T21:03:47.696Z,12.10
2022-10-01T21:06:18.343Z,12.12
2022-10-01T21:08:52.628Z,12.16
2022-10-01T21:11:27.513Z,12.12
2022-10-01T21:14:06.090Z,12.15
2022-10-01T21:16:51.747Z,12.16
2022-10-01T21:19:36.723Z,12.22
2022-10-01T21:22:15.813Z,12.18
2022-10-01T21:24:57.447Z,12.22
2022-10-01T21:27:38.151Z,12.25
2022-10-01T21:30:09.471Z,12.18
2022-10-01T21:32:51.803Z,12.22
2022-10-01T21:35:27.111Z,12.29
2022-10-01T21:38:00.877Z,12.37
2022-10-01T21:40:44.062Z,12.38
2022-10-01T21:43:16.455Z,12.41
2022-10-01T21:45:46.665Z,12.29
2022-10-01T21:48:28.302Z,12.35
2022-10-01T21:50:57.792Z,12.32
2022-10-01T21:53:56.150Z,12.25
2022-10-01T21:56:38.829Z,12.27
2022-10-01T21:59:11.119Z,12.19
2022-10-01T22:01:50.666Z,12.15
2022-10-01T22:04:20.855Z,12.16
2022-10-01T22:06:52.754Z,12.16
2022-10-01T22:09:24.061Z,12.09
2022-10-01T22:11:55.613Z,11.96
2022-10-01T22:14:25.326Z,11.95
2022-10-01T22:16:56.277Z,11.92
2022-10-01T22:19:29.096Z,11.87
2022-10-01T22:21:59.392Z,11.86
2022-10-01T22:24:30.967Z,11.81
2022-10-01T22:27:06.679Z,11.85
2022-10-01T22:29:37.658Z,11.84
2022-10-01T22:32:05.933Z,11.80
2022-10-01T22:34:35.572Z,11.83
2022-10-01T22:37:06.610Z,11.91
2022-10-01T22:39:38.147Z,11.81
2022-10-01T22:42:09.881Z,11.87
2022-10-01T22:44:37.752Z,11.80
2022-10-01T22:47:17.560Z,11.79
2022-10-01T22:49:55.757Z,11.77
2022-10-01T22:52:31.588Z,11.71
2022-10-01T22:55:08.932Z,11.78
2022-10-01T22:57:52.097Z,11.69
2022-10-01T23:00:21.225Z,11.60
2022-10-01T23:02:57.387Z,11.72
2022-10-01T23:05:36.355Z,11.70
2022-10-01T23:08:07.872Z,11.65
2022-10-01T23:10:41.012Z,11.63
2022-10-01T23:13:19.363Z,11.64
2022-10-01T23:15:51.941Z,11.58
2022-10-01T23:18:28.463Z,11.65
2022-10-01T23:21:05.583Z,11.70
2022-10-01T23:23:34.185Z,11.69
2022-10-01T23:26:30.847Z,11.66
2022-10-01T23:29:09.975Z,11.63
2022-10-01T23:31:41.735Z,11.74
2022-10-01T23:34:22.743Z,11.63
2022-10-01T23:36:54.684Z,11.64
2022-10-01T23:39:45.729Z,11.73
2022-10-01T23:42:21.153Z,11.67
2022-10-01T23:44:55.904Z,11.74
2022-10-01T23:47:28.344Z,11.75
2022-10-01T23:49:57.462Z,11.78
2022-10-01T23:52:30.663Z,11.76
2022-10-01T23:55:21.107Z,11.76
2022-10-01T23:57:48.561Z,11.80
